Time;durP1;ratioP1;P1;durP2;ratioP2;P2;SDS_P1;SDS_P2;PMS_P1;PMS_P2;Temp;Humidity;BMP_temperature;BMP_pressure;BME280_temperature;BME280_humidity;BME280_pressure;Samples;Min_cycle;Max_cycle;Signal;HPM_P1;HPM_P2
2024/01/27 00:02:27;;;;;;;13.05;2.65;;;23.70;99.90;;;;;;5133149;27;20575;-79
2024/01/27 00:04:57;;;;;;;9.90;2.50;;;23.70;99.90;;;;;;5125789;27;20200;-80
2024/01/27 00:07:28;;;;;;;10.60;2.65;;;23.80;99.90;;;;;;5112927;27;20566;-81
2024/01/27 00:10:01;;;;;;;8.95;2.33;;;23.70;99.90;;;;;;5119496;27;20218;-81
2024/01/27 00:12:32;;;;;;;8.85;2.63;;;23.80;99.90;;;;;;5132712;27;20204;-81
2024/01/27 00:15:03;;;;;;;8.20;2.58;;;23.70;99.90;;;;;;5119090;27;20198;-80
2024/01/27 00:17:35;;;;;;;9.38;2.35;;;23.70;99.90;;;;;;5120450;27;20560;-80
2024/01/27 00:20:06;;;;;;;11.77;2.45;;;23.70;99.90;;;;;;5115622;27;20277;-79
2024/01/27 00:22:37;;;;;;;11.10;2.53;;;23.70;99.90;;;;;;5121002;27;20302;-80
2024/01/27 00:25:10;;;;;;;9.40;2.50;;;23.70;99.90;;;;;;5111320;28;20194;-81
2024/01/27 00:27:41;;;;;;;8.75;2.33;;;23.80;99.90;;;;;;5111803;28;20213;-80
2024/01/27 00:30:13;;;;;;;9.30;2.17;;;23.80;99.90;;;;;;5113468;27;20213;-81
2024/01/27 00:32:44;;;;;;;10.70;2.05;;;23.90;99.90;;;;;;5111233;28;20198;-80
2024/01/27 00:35:15;;;;;;;10.07;2.25;;;23.90;99.90;;;;;;5109785;28;20201;-80
2024/01/27 00:37:46;;;;;;;10.18;2.55;;;23.90;99.90;;;;;;5115286;27;20191;-80
2024/01/27 00:40:20;;;;;;;11.38;2.30;;;23.90;99.90;;;;;;5124931;27;20185;-81
2024/01/27 00:42:51;;;;;;;12.05;2.75;;;24.00;99.90;;;;;;5144203;27;20201;-82
2024/01/27 00:45:22;;;;;;;12.20;2.50;;;24.10;99.90;;;;;;5122649;28;20289;-82
2024/01/27 00:47:53;;;;;;;12.05;2.80;;;24.00;99.90;;;;;;5111637;28;20601;-81
2024/01/27 00:50:24;;;;;;;10.93;3.00;;;24.00;99.90;;;;;;5124766;27;20701;-80
2024/01/27 00:52:55;;;;;;;10.00;2.75;;;24.10;99.90;;;;;;5141706;27;20225;-82
2024/01/27 00:55:28;;;;;;;10.20;3.47;;;24.10;99.90;;;;;;5132709;27;20198;-81
2024/01/27 00:57:58;;;;;;;12.68;3.00;;;24.10;99.90;;;;;;5130900;27;20194;-81
2024/01/27 01:00:29;;;;;;;8.27;2.30;;;24.10;99.90;;;;;;5126618;27;20192;-80
2024/01/27 01:03:00;;;;;;;10.13;2.13;;;24.10;99.90;;;;;;5110483;28;20202;-81
2024/01/27 01:05:31;;;;;;;10.57;2.22;;;24.20;99.90;;;;;;5113993;28;20743;-79
2024/01/27 01:08:02;;;;;;;11.45;2.58;;;24.20;99.90;;;;;;5136860;27;20203;-80
2024/01/27 01:10:34;;;;;;;14.38;2.83;;;24.20;99.90;;;;;;5152176;27;20223;-80
2024/01/27 01:13:05;;;;;;;14.40;2.75;;;24.30;99.90;;;;;;5109717;28;20289;-80
2024/01/27 01:15:36;;;;;;;11.30;2.92;;;24.30;99.90;;;;;;5109668;28;20251;-80
2024/01/27 01:18:08;;;;;;;11.27;2.78;;;24.30;99.90;;;;;;5111305;28;20297;-81
2024/01/27 01:20:38;;;;;;;11.68;2.65;;;24.30;99.90;;;;;;5117686;28;20293;-80
2024/01/27 01:23:09;;;;;;;11.45;2.80;;;24.30;99.90;;;;;;5124304;28;20186;-80
2024/01/27 01:25:42;;;;;;;9.27;2.50;;;24.30;99.90;;;;;;5117067;28;20195;-80
2024/01/27 01:28:13;;;;;;;9.05;2.60;;;24.30;99.90;;;;;;5120999;28;20320;-80
2024/01/27 01:30:44;;;;;;;9.95;2.85;;;24.30;99.90;;;;;;5109961;28;20232;-80
2024/01/27 01:33:15;;;;;;;11.32;3.00;;;24.30;99.90;;;;;;5110608;28;20220;-79
2024/01/27 01:35:45;;;;;;;9.52;2.50;;;24.30;99.90;;;;;;5112792;28;20199;-79
2024/01/27 01:38:16;;;;;;;7.38;2.35;;;24.20;99.90;;;;;;5122072;28;20197;-80
2024/01/27 01:40:49;;;;;;;7.28;2.20;;;24.10;99.90;;;;;;5119018;28;20198;-79
2024/01/27 01:43:20;;;;;;;7.47;2.00;;;24.20;99.90;;;;;;5120998;28;20698;-81
2024/01/27 01:45:53;;;;;;;9.27;2.60;;;24.30;99.90;;;;;;5123563;28;20198;-81
2024/01/27 01:48:24;;;;;;;8.00;2.10;;;24.30;99.90;;;;;;5110260;28;20250;-81
2024/01/27 01:50:55;;;;;;;7.93;2.38;;;24.30;99.90;;;;;;5114033;28;20598;-80
2024/01/27 01:53:26;;;;;;;7.80;1.90;;;24.30;99.90;;;;;;5116777;28;20187;-81
2024/01/27 01:55:59;;;;;;;6.85;2.10;;;24.30;99.90;;;;;;5115287;28;20199;-80
2024/01/27 01:58:34;;;;;;;8.35;2.17;;;24.30;99.90;;;;;;5114984;28;20289;-79
2024/01/27 02:01:04;;;;;;;8.15;2.10;;;24.40;99.90;;;;;;5110529;28;20201;-79
2024/01/27 02:03:35;;;;;;;10.52;2.42;;;24.40;99.90;;;;;;5110835;28;20202;-80
2024/01/27 02:06:06;;;;;;;7.43;2.10;;;24.50;99.90;;;;;;5110789;28;20297;-80
2024/01/27 02:08:37;;;;;;;7.15;2.25;;;24.40;99.90;;;;;;5111173;28;20217;-80
2024/01/27 02:11:09;;;;;;;10.43;2.30;;;24.40;99.90;;;;;;5113780;27;20588;-79
2024/01/27 02:13:40;;;;;;;10.55;2.10;;;24.50;99.90;;;;;;5113782;28;20710;-80
2024/01/27 02:16:11;;;;;;;7.95;2.35;;;24.60;99.90;;;;;;5135362;27;20424;-80
2024/01/27 02:18:42;;;;;;;11.75;2.17;;;24.60;99.90;;;;;;5135055;27;20279;-79
2024/01/27 02:21:13;;;;;;;9.70;2.28;;;24.60;99.90;;;;;;5134856;27;20205;-79
2024/01/27 02:23:44;;;;;;;6.97;2.20;;;24.60;99.90;;;;;;5135275;27;20204;-79
2024/01/27 02:26:17;;;;;;;9.40;1.95;;;24.70;99.90;;;;;;5133230;27;20204;-80
2024/01/27 02:28:47;;;;;;;9.18;2.30;;;24.60;99.90;;;;;;5116132;27;20199;-80
2024/01/27 02:31:18;;;;;;;11.18;2.65;;;24.70;99.90;;;;;;5119272;27;20226;-79
2024/01/27 02:33:50;;;;;;;11.48;2.33;;;24.70;99.90;;;;;;5140852;27;20258;-79
2024/01/27 02:36:20;;;;;;;9.80;2.28;;;24.80;99.90;;;;;;5143784;27;20222;-79
2024/01/27 02:38:51;;;;;;;10.15;2.40;;;24.90;99.90;;;;;;5135503;27;20204;-80
2024/01/27 02:41:24;;;;;;;15.13;2.80;;;24.90;99.90;;;;;;5133986;27;20197;-80
2024/01/27 02:43:55;;;;;;;11.88;2.53;;;24.90;99.90;;;;;;5134519;27;20201;-80
2024/01/27 02:46:25;;;;;;;9.52;2.50;;;25.00;99.90;;;;;;5118177;27;20198;-80
2024/01/27 02:48:56;;;;;;;9.30;2.47;;;25.00;99.90;;;;;;5114619;27;20289;-80
2024/01/27 02:51:27;;;;;;;9.70;2.55;;;25.00;99.90;;;;;;5113513;28;20371;-80
2024/01/27 02:53:58;;;;;;;12.18;2.70;;;25.00;99.90;;;;;;5114252;28;20190;-80
2024/01/27 02:56:31;;;;;;;8.65;2.58;;;24.90;99.90;;;;;;5118136;27;20574;-80
2024/01/27 02:59:02;;;;;;;9.75;2.47;;;24.90;99.90;;;;;;5134489;27;20208;-79
2024/01/27 03:01:32;;;;;;;7.03;1.88;;;24.90;99.90;;;;;;5117138;27;20197;-80
2024/01/27 03:04:03;;;;;;;10.65;2.08;;;24.90;99.90;;;;;;5113854;28;20190;-80
2024/01/27 03:06:34;;;;;;;10.55;2.70;;;24.90;99.90;;;;;;5112695;27;20202;-80
2024/01/27 03:09:05;;;;;;;12.38;2.60;;;25.00;99.90;;;;;;5113051;28;20199;-79
2024/01/27 03:11:38;;;;;;;9.50;2.33;;;25.10;99.90;;;;;;5113105;28;20222;-78
2024/01/27 03:14:08;;;;;;;12.90;3.00;;;25.00;99.90;;;;;;5113027;28;20730;-79
2024/01/27 03:16:39;;;;;;;10.68;2.50;;;25.00;99.90;;;;;;5113479;28;20205;-80
2024/01/27 03:19:10;;;;;;;12.70;3.15;;;25.00;99.90;;;;;;5113090;28;20194;-80
2024/01/27 03:21:43;;;;;;;10.15;3.00;;;24.90;99.90;;;;;;5112786;28;20205;-80
2024/01/27 03:24:14;;;;;;;10.23;2.50;;;24.80;99.90;;;;;;5129128;27;20198;-80
2024/01/27 03:26:47;;;;;;;12.50;2.65;;;24.70;99.90;;;;;;5128330;27;20209;-80
2024/01/27 03:29:18;;;;;;;10.15;2.38;;;24.60;99.90;;;;;;5133473;27;20202;-80
2024/01/27 03:31:51;;;;;;;14.32;3.20;;;24.50;99.90;;;;;;5133837;27;20222;-80
2024/01/27 03:34:27;;;;;;;10.88;2.85;;;24.50;99.90;;;;;;5134318;27;20210;-81
2024/01/27 03:36:57;;;;;;;9.80;2.78;;;24.40;99.90;;;;;;5133567;27;20193;-79
2024/01/27 03:39:28;;;;;;;13.32;2.55;;;24.30;99.90;;;;;;5114248;27;20201;-80
2024/01/27 03:42:01;;;;;;;14.88;2.92;;;24.30;99.90;;;;;;5116291;28;20563;-80
2024/01/27 03:44:32;;;;;;;14.23;2.92;;;24.30;99.90;;;;;;5113487;28;20199;-79
2024/01/27 03:47:02;;;;;;;14.45;2.92;;;24.30;99.90;;;;;;5113415;28;20198;-80
2024/01/27 03:49:33;;;;;;;12.50;2.75;;;24.30;99.90;;;;;;5112258;28;20202;-79
2024/01/27 03:52:04;;;;;;;9.38;2.50;;;24.20;99.90;;;;;;5111910;28;20321;-81
2024/01/27 03:54:35;;;;;;;7.50;2.15;;;24.20;99.90;;;;;;5111901;27;20685;-79
2024/01/27 03:57:07;;;;;;;13.27;2.85;;;24.10;99.90;;;;;;5123389;27;20201;-79
2024/01/27 03:59:38;;;;;;;14.30;2.92;;;24.10;99.90;;;;;;5132648;27;20204;-80
2024/01/27 04:02:09;;;;;;;12.02;2.67;;;24.00;99.90;;;;;;5132890;27;20243;-80
2024/01/27 04:04:40;;;;;;;12.32;2.80;;;23.90;99.90;;;;;;5131330;27;20225;-79
2024/01/27 04:07:11;;;;;;;12.30;2.83;;;24.00;99.90;;;;;;5132894;27;20190;-80
2024/01/27 04:09:41;;;;;;;11.65;2.78;;;24.00;99.90;;;;;;5133378;27;20209;-79
2024/01/27 04:12:14;;;;;;;11.77;2.67;;;24.00;99.90;;;;;;5112767;27;20226;-79
2024/01/27 04:14:45;;;;;;;13.18;2.70;;;24.10;99.90;;;;;;5113561;27;20622;-80
2024/01/27 04:17:16;;;;;;;11.30;3.08;;;24.10;99.90;;;;;;5112324;28;20190;-79
2024/01/27 04:19:49;;;;;;;9.05;2.40;;;24.20;99.90;;;;;;5112418;28;20199;-80
2024/01/27 04:22:20;;;;;;;14.10;2.78;;;24.30;99.90;;;;;;5130925;27;20198;-80
2024/01/27 04:24:51;;;;;;;11.43;2.60;;;24.40;99.90;;;;;;5136533;27;20281;-79
2024/01/27 04:27:24;;;;;;;10.85;2.45;;;24.50;99.90;;;;;;5112810;28;20199;-79
2024/01/27 04:29:55;;;;;;;12.50;2.55;;;24.70;99.90;;;;;;5113022;27;20195;-81
2024/01/27 04:32:26;;;;;;;9.00;2.60;;;25.00;99.90;;;;;;5121078;28;20221;-78
2024/01/27 04:34:57;;;;;;;13.85;2.70;;;25.20;99.90;;;;;;5125867;28;20232;-79
2024/01/27 04:37:28;;;;;;;14.25;2.90;;;25.20;99.90;;;;;;5129839;28;20725;-79
2024/01/27 04:39:59;;;;;;;10.93;2.67;;;25.30;99.90;;;;;;5123867;28;20218;-79
2024/01/27 04:42:32;;;;;;;8.43;2.15;;;25.20;99.90;;;;;;5112364;28;20208;-79
2024/01/27 04:45:03;;;;;;;10.93;2.40;;;25.30;99.90;;;;;;5112031;28;20197;-80
2024/01/27 04:47:34;;;;;;;10.15;2.45;;;25.20;99.90;;;;;;5113021;27;20238;-80
2024/01/27 04:50:05;;;;;;;6.85;2.03;;;25.10;99.90;;;;;;5116970;28;20224;-79
2024/01/27 04:52:36;;;;;;;11.38;2.58;;;25.10;99.90;;;;;;5116967;27;20220;-80
2024/01/27 04:55:07;;;;;;;9.82;2.20;;;25.20;99.90;;;;;;5132498;27;20190;-79
2024/01/27 04:57:39;;;;;;;12.65;2.50;;;25.20;99.90;;;;;;5132256;27;20198;-79
2024/01/27 05:00:12;;;;;;;9.93;2.10;;;25.20;99.90;;;;;;5129526;27;20569;-79
2024/01/27 05:02:44;;;;;;;9.57;2.20;;;25.30;99.90;;;;;;5112118;28;20209;-79
2024/01/27 05:05:15;;;;;;;15.32;2.85;;;25.20;99.90;;;;;;5112432;28;20222;-79
2024/01/27 05:07:46;;;;;;;7.75;1.98;;;25.30;99.90;;;;;;5111844;28;20190;-80
2024/01/27 05:10:18;;;;;;;8.20;2.00;;;25.30;99.90;;;;;;5111398;28;20248;-80
2024/01/27 05:12:51;;;;;;;11.02;2.40;;;25.50;99.90;;;;;;5110762;28;20233;-79
2024/01/27 05:15:22;;;;;;;13.55;2.70;;;25.50;99.90;;;;;;5112143;28;20194;-79
2024/01/27 05:17:52;;;;;;;9.80;2.35;;;25.60;99.90;;;;;;5115175;28;20561;-79
2024/01/27 05:20:23;;;;;;;10.13;2.30;;;25.60;99.90;;;;;;5114427;28;20198;-79
2024/01/27 05:22:54;;;;;;;9.38;2.67;;;25.60;99.90;;;;;;5112892;28;20217;-78
2024/01/27 05:25:25;;;;;;;15.32;2.80;;;25.70;99.90;;;;;;5111238;28;20281;-79
2024/01/27 05:27:58;;;;;;;12.57;3.22;;;25.70;99.90;;;;;;5111596;28;20201;-79
2024/01/27 05:30:28;;;;;;;15.13;2.88;;;25.60;99.90;;;;;;5110826;28;20209;-79
2024/01/27 05:32:59;;;;;;;10.30;2.72;;;25.50;99.90;;;;;;5112173;28;20210;-80
2024/01/27 05:35:30;;;;;;;12.35;3.03;;;25.40;99.90;;;;;;5110502;28;20199;-80
2024/01/27 05:38:01;;;;;;;10.68;2.58;;;25.30;99.90;;;;;;5112746;28;20220;-79
2024/01/27 05:40:32;;;;;;;10.27;3.03;;;25.40;99.90;;;;;;5111825;28;20289;-79
2024/01/27 05:43:05;;;;;;;12.65;3.13;;;25.40;99.90;;;;;;5110774;28;20663;-79
2024/01/27 05:45:36;;;;;;;9.13;2.53;;;25.30;99.90;;;;;;5113770;28;20621;-79
2024/01/27 05:48:07;;;;;;;10.80;2.53;;;25.20;99.90;;;;;;5115516;28;20658;-79
2024/01/27 05:50:38;;;;;;;14.73;3.03;;;25.10;99.90;;;;;;5118201;27;20304;-78
2024/01/27 05:53:08;;;;;;;9.50;2.65;;;25.10;99.90;;;;;;5120855;27;20686;-79
2024/01/27 05:55:38;;;;;;;13.48;2.47;;;25.10;99.90;;;;;;5116066;28;20212;-78
2024/01/27 05:58:10;;;;;;;15.65;3.08;;;25.00;99.90;;;;;;5121074;28;20191;-78
2024/01/27 06:00:42;;;;;;;11.43;2.83;;;25.00;99.90;;;;;;5121063;27;20202;-79
2024/01/27 06:03:13;;;;;;;12.05;2.80;;;25.00;99.90;;;;;;5117754;27;20198;-79
2024/01/27 06:05:44;;;;;;;11.55;2.50;;;25.00;99.90;;;;;;5114402;27;20223;-79
2024/01/27 06:08:15;;;;;;;14.23;3.40;;;25.00;99.90;;;;;;5116437;27;20563;-78
2024/01/27 06:10:46;;;;;;;11.43;2.80;;;24.90;99.90;;;;;;5120677;27;20643;-78
2024/01/27 06:13:18;;;;;;;10.65;2.38;;;24.90;99.90;;;;;;5129740;27;20226;-78
2024/01/27 06:15:49;;;;;;;9.38;2.47;;;24.80;99.90;;;;;;5115372;28;20212;-79
2024/01/27 06:18:20;;;;;;;8.63;2.30;;;24.80;99.90;;;;;;5132185;27;20222;-79
2024/01/27 06:20:51;;;;;;;13.23;2.70;;;24.90;99.90;;;;;;5128340;27;20199;-79
2024/01/27 06:23:22;;;;;;;10.73;2.50;;;24.90;99.90;;;;;;5125646;27;20606;-78
2024/01/27 06:25:52;;;;;;;10.40;1.80;;;24.90;99.90;;;;;;5135774;27;20246;-79
2024/01/27 06:28:25;;;;;;;8.70;2.22;;;24.90;99.90;;;;;;5126353;27;20195;-78
2024/01/27 06:30:56;;;;;;;7.63;2.00;;;25.00;99.90;;;;;;5146497;27;20199;-79
2024/01/27 06:33:27;;;;;;;9.45;2.80;;;25.10;99.90;;;;;;5148527;27;20206;-78
2024/01/27 06:35:57;;;;;;;8.05;2.38;;;25.00;99.90;;;;;;5118393;27;20584;-79
2024/01/27 06:38:28;;;;;;;9.70;2.47;;;25.10;99.90;;;;;;5114470;28;20199;-78
2024/01/27 06:40:59;;;;;;;12.73;2.83;;;25.10;99.90;;;;;;5114371;27;20289;-80
2024/01/27 06:43:32;;;;;;;8.90;2.50;;;25.10;99.90;;;;;;5129415;27;20195;-80
2024/01/27 06:46:03;;;;;;;8.70;2.47;;;25.10;99.90;;;;;;5114763;27;20202;-79
2024/01/27 06:48:34;;;;;;;14.68;3.03;;;25.10;99.90;;;;;;5114858;28;20198;-80
2024/01/27 06:51:06;;;;;;;11.30;2.42;;;25.10;99.90;;;;;;5113098;27;20231;-80
2024/01/27 06:53:37;;;;;;;12.80;3.17;;;25.00;99.90;;;;;;5134357;27;20236;-79
2024/01/27 06:56:08;;;;;;;12.25;2.35;;;25.00;99.90;;;;;;5128500;27;20196;-79
2024/01/27 06:58:40;;;;;;;8.77;2.58;;;25.10;99.90;;;;;;5133906;27;20214;-79
2024/01/27 07:01:11;;;;;;;10.73;2.42;;;25.10;99.90;;;;;;5133513;27;20197;-78
2024/01/27 07:03:44;;;;;;;9.02;2.55;;;25.10;99.90;;;;;;5126500;27;20198;-79
2024/01/27 07:06:15;;;;;;;10.25;2.78;;;25.10;99.90;;;;;;5126065;27;20198;-78
2024/01/27 07:08:45;;;;;;;12.68;3.05;;;25.10;99.90;;;;;;5133855;27;20570;-79
2024/01/27 07:11:16;;;;;;;10.40;2.78;;;25.20;99.90;;;;;;5127132;27;20654;-78
2024/01/27 07:13:49;;;;;;;6.82;2.28;;;25.00;99.90;;;;;;5119287;27;20197;-78
2024/01/27 07:16:20;;;;;;;11.93;2.92;;;25.00;99.90;;;;;;5131861;27;20713;-79
2024/01/27 07:18:51;;;;;;;12.25;2.90;;;25.10;99.90;;;;;;5133628;27;20193;-79
2024/01/27 07:21:22;;;;;;;13.13;3.13;;;25.10;99.90;;;;;;5133874;27;20206;-79
2024/01/27 07:23:53;;;;;;;13.63;2.50;;;25.20;99.90;;;;;;5134376;27;20215;-79
2024/01/27 07:26:24;;;;;;;11.63;2.83;;;25.10;99.90;;;;;;5127203;27;20273;-79
2024/01/27 07:28:57;;;;;;;9.32;2.70;;;25.10;99.90;;;;;;5119634;27;20216;-78
2024/01/27 07:31:27;;;;;;;9.85;2.83;;;25.10;99.90;;;;;;5133655;27;20198;-80
2024/01/27 07:33:58;;;;;;;11.73;2.65;;;25.10;99.90;;;;;;5130477;27;20779;-79
2024/01/27 07:36:32;;;;;;;15.05;3.45;;;25.10;99.90;;;;;;5121946;27;20561;-80
2024/01/27 07:39:04;;;;;;;10.45;2.92;;;25.10;99.90;;;;;;5125216;27;20634;-78
2024/01/27 07:41:35;;;;;;;12.63;3.00;;;25.10;99.90;;;;;;5133646;27;20216;-78
2024/01/27 07:44:14;;;;;;;11.32;2.75;;;25.20;99.90;;;;;;5128201;27;20208;-80
2024/01/27 07:46:45;;;;;;;12.52;2.92;;;25.20;99.90;;;;;;5113824;27;20313;-79
2024/01/27 07:49:16;;;;;;;9.45;2.72;;;25.10;99.90;;;;;;5118033;27;20228;-79
2024/01/27 07:51:46;;;;;;;17.17;3.45;;;25.10;99.90;;;;;;5122932;27;20226;-80
2024/01/27 07:54:17;;;;;;;15.50;2.78;;;25.10;99.90;;;;;;5110781;27;20349;-80
2024/01/27 07:56:48;;;;;;;10.05;2.78;;;25.10;99.90;;;;;;5049874;28;20614;-80
2024/01/27 07:59:21;;;;;;;10.68;2.60;;;25.10;99.90;;;;;;5109566;27;20289;-80
2024/01/27 08:01:52;;;;;;;9.98;2.53;;;25.10;99.90;;;;;;5136319;27;20288;-80
2024/01/27 08:04:22;;;;;;;10.60;2.70;;;25.10;99.90;;;;;;5142885;27;20206;-80
2024/01/27 08:06:54;;;;;;;10.27;2.70;;;25.10;99.90;;;;;;5129832;27;20194;-79
2024/01/27 08:09:25;;;;;;;12.60;2.88;;;25.00;99.90;;;;;;5113546;28;20195;-80
2024/01/27 08:11:57;;;;;;;12.00;2.65;;;25.10;99.90;;;;;;5121442;28;20222;-80
2024/01/27 08:14:30;;;;;;;9.30;2.33;;;25.10;99.90;;;;;;5118402;27;20198;-80
2024/01/27 08:17:03;;;;;;;6.32;2.00;;;25.00;99.90;;;;;;5132222;27;20680;-80
2024/01/27 08:19:34;;;;;;;9.20;2.22;;;25.10;99.90;;;;;;5122828;27;20203;-79
2024/01/27 08:22:04;;;;;;;7.57;1.80;;;25.10;99.90;;;;;;5116982;27;20193;-81
2024/01/27 08:24:35;;;;;;;8.30;2.28;;;25.10;99.90;;;;;;5132638;27;20201;-81
2024/01/27 08:27:06;;;;;;;6.10;2.03;;;25.10;99.90;;;;;;5132530;27;20200;-80
2024/01/27 08:29:39;;;;;;;9.55;2.72;;;25.10;99.90;;;;;;5113028;27;20281;-80
2024/01/27 08:32:10;;;;;;;9.75;2.80;;;25.10;99.90;;;;;;5112078;28;20663;-81
2024/01/27 08:34:41;;;;;;;8.32;2.13;;;25.10;99.90;;;;;;5130625;27;20201;-81
2024/01/27 08:37:20;;;;;;;9.02;2.42;;;25.10;99.90;;;;;;5133492;27;20205;-81
2024/01/27 08:39:51;;;;;;;7.85;2.20;;;25.10;99.90;;;;;;5132953;27;20211;-80
2024/01/27 08:42:22;;;;;;;7.22;2.13;;;25.10;99.90;;;;;;5131044;27;20207;-79
2024/01/27 08:44:55;;;;;;;10.65;2.63;;;25.10;99.90;;;;;;5131739;27;20237;-81
2024/01/27 08:47:25;;;;;;;12.93;2.75;;;25.10;99.90;;;;;;5112208;28;20351;-80
2024/01/27 08:49:56;;;;;;;10.40;2.70;;;25.10;99.90;;;;;;5117014;27;20276;-81
2024/01/27 08:52:27;;;;;;;9.65;2.72;;;25.10;99.90;;;;;;5126665;27;20225;-80
2024/01/27 08:54:58;;;;;;;12.20;2.95;;;25.00;99.90;;;;;;5123996;27;20187;-81
2024/01/27 08:57:29;;;;;;;9.60;2.70;;;25.00;99.90;;;;;;5120745;27;20209;-80
2024/01/27 09:00:03;;;;;;;9.73;2.55;;;24.90;99.90;;;;;;5123423;27;20221;-80
2024/01/27 09:02:34;;;;;;;11.18;2.75;;;24.90;99.90;;;;;;5126292;27;20557;-80
2024/01/27 09:05:05;;;;;;;10.70;2.90;;;24.90;99.90;;;;;;5117504;27;20209;-80
2024/01/27 09:07:36;;;;;;;11.40;2.45;;;25.00;99.90;;;;;;5113558;28;20244;-80
2024/01/27 09:10:09;;;;;;;9.73;2.58;;;25.00;99.90;;;;;;5117529;28;20198;-80
2024/01/27 09:12:40;;;;;;;15.00;3.10;;;24.90;99.90;;;;;;5070522;28;20233;-81
2024/01/27 09:15:13;;;;;;;11.52;2.60;;;24.90;99.90;;;;;;5050474;27;20196;-79
2024/01/27 09:17:44;;;;;;;13.88;2.75;;;24.80;99.90;;;;;;5119833;28;20739;-80
2024/01/27 09:20:15;;;;;;;13.90;2.95;;;24.80;99.90;;;;;;5125697;27;20194;-79
2024/01/27 09:22:47;;;;;;;12.98;2.72;;;24.80;99.90;;;;;;5136657;27;20198;-80
2024/01/27 09:25:18;;;;;;;13.27;2.75;;;24.70;99.90;;;;;;5137383;27;20217;-79
2024/01/27 09:27:48;;;;;;;14.18;2.80;;;24.80;99.90;;;;;;5136218;27;20562;-79
2024/01/27 09:30:22;;;;;;;10.77;2.70;;;24.80;99.90;;;;;;5137212;27;20283;-81
2024/01/27 09:32:52;;;;;;;11.18;2.63;;;24.80;99.90;;;;;;5134123;27;20305;-81
2024/01/27 09:35:24;;;;;;;10.55;2.50;;;24.80;99.90;;;;;;5120215;27;20195;-80
2024/01/27 09:37:54;;;;;;;7.70;2.58;;;24.80;99.90;;;;;;5115286;27;20194;-80
2024/01/27 09:40:25;;;;;;;10.95;2.72;;;24.80;99.90;;;;;;5129737;27;20281;-80
2024/01/27 09:42:59;;;;;;;10.30;2.75;;;24.80;99.90;;;;;;5128369;27;20194;-81
2024/01/27 09:45:32;;;;;;;10.02;2.38;;;24.80;99.90;;;;;;5120526;27;20194;-81
2024/01/27 09:48:05;;;;;;;9.52;2.58;;;24.80;99.90;;;;;;5086740;27;20193;-80
2024/01/27 09:50:36;;;;;;;12.25;2.83;;;24.90;99.90;;;;;;5093635;27;20223;-80
2024/01/27 09:53:08;;;;;;;8.43;2.45;;;24.90;99.90;;;;;;5134538;27;20244;-80
2024/01/27 09:55:39;;;;;;;12.73;2.63;;;24.90;99.90;;;;;;5127729;27;20215;-81
2024/01/27 09:58:10;;;;;;;9.80;2.63;;;24.90;99.90;;;;;;5116353;27;20200;-80
2024/01/27 10:00:44;;;;;;;11.38;2.88;;;24.90;99.90;;;;;;5116806;28;20187;-80
2024/01/27 10:03:16;;;;;;;8.88;2.38;;;24.90;99.90;;;;;;5126757;27;20201;-81
2024/01/27 10:05:48;;;;;;;12.10;2.78;;;24.90;99.90;;;;;;5128778;27;20217;-80
2024/01/27 10:08:19;;;;;;;9.63;2.53;;;24.90;99.90;;;;;;5120433;27;20725;-80
2024/01/27 10:10:50;;;;;;;13.60;2.58;;;24.90;99.90;;;;;;5122863;27;20217;-81
2024/01/27 10:13:26;;;;;;;10.88;2.40;;;24.90;99.90;;;;;;5123006;27;20317;-81
2024/01/27 10:16:08;;;;;;;10.10;2.67;;;24.80;99.90;;;;;;5117432;28;20251;-81
2024/01/27 10:18:39;;;;;;;10.25;2.70;;;24.80;99.90;;;;;;5115642;28;20201;-81
2024/01/27 10:21:17;;;;;;;10.48;2.67;;;24.90;99.90;;;;;;5126858;27;20194;-81
2024/01/27 10:23:51;;;;;;;11.73;3.05;;;24.80;99.90;;;;;;5125169;27;20756;-80
2024/01/27 10:26:22;;;;;;;11.98;2.75;;;24.90;99.90;;;;;;5125597;27;20298;-81
2024/01/27 10:28:57;;;;;;;11.18;2.60;;;24.90;99.90;;;;;;5120880;27;20289;-80
2024/01/27 10:31:33;;;;;;;14.63;3.15;;;24.90;99.90;;;;;;5124674;27;20185;-80
2024/01/27 10:34:08;;;;;;;10.70;2.75;;;24.80;99.90;;;;;;5129641;27;20641;-80
2024/01/27 10:36:46;;;;;;;11.07;2.92;;;24.90;99.90;;;;;;5116695;27;20582;-79
2024/01/27 10:39:21;;;;;;;10.23;2.50;;;24.90;99.90;;;;;;5115201;27;20617;-80
2024/01/27 10:41:53;;;;;;;11.02;2.70;;;24.90;99.90;;;;;;5114571;28;20205;-80
2024/01/27 10:44:25;;;;;;;12.68;3.05;;;24.90;99.90;;;;;;5138042;27;20290;-78
2024/01/27 10:47:02;;;;;;;13.13;2.83;;;24.90;99.90;;;;;;5136283;27;20247;-79
2024/01/27 10:49:38;;;;;;;10.95;2.42;;;24.90;99.90;;;;;;5114002;27;20269;-81
2024/01/27 10:52:17;;;;;;;10.00;2.42;;;24.90;99.90;;;;;;5117661;27;20225;-81
2024/01/27 10:54:50;;;;;;;12.73;2.78;;;24.90;99.90;;;;;;5135328;27;20270;-82
2024/01/27 10:57:21;;;;;;;9.77;2.38;;;24.90;99.90;;;;;;5135478;27;20194;-79
2024/01/27 10:59:56;;;;;;;12.57;2.90;;;24.90;99.90;;;;;;5115793;27;20627;-81
2024/01/27 11:02:30;;;;;;;9.10;2.22;;;24.90;99.90;;;;;;5129785;27;20283;-80
2024/01/27 11:05:04;;;;;;;11.80;3.00;;;24.90;99.90;;;;;;5125401;27;20217;-81
2024/01/27 11:07:37;;;;;;;14.07;2.72;;;24.90;99.90;;;;;;5106496;27;20198;-81
2024/01/27 11:10:08;;;;;;;11.98;2.83;;;24.90;99.90;;;;;;5113748;28;20194;-80
2024/01/27 11:12:39;;;;;;;14.63;2.83;;;24.90;99.90;;;;;;5114927;28;20208;-81
2024/01/27 11:15:10;;;;;;;12.98;2.72;;;24.90;99.90;;;;;;5124203;27;20264;-80
2024/01/27 11:17:47;;;;;;;10.98;2.70;;;24.90;99.90;;;;;;5120663;28;20195;-81
2024/01/27 11:20:20;;;;;;;9.73;2.50;;;24.90;99.90;;;;;;5119762;28;20244;-78
2024/01/27 11:22:52;;;;;;;10.93;2.47;;;24.90;99.90;;;;;;5124057;28;20201;-80
2024/01/27 11:25:23;;;;;;;12.55;3.15;;;24.90;99.90;;;;;;5128819;27;20187;-80
2024/01/27 11:27:54;;;;;;;11.98;2.45;;;24.80;99.90;;;;;;5137055;27;20216;-80
2024/01/27 11:30:37;;;;;;;12.20;2.53;;;24.80;99.90;;;;;;5144077;27;20257;-80
2024/01/27 11:33:10;;;;;;;14.85;3.13;;;24.70;99.90;;;;;;5129836;27;20235;-80
2024/01/27 11:35:41;;;;;;;12.55;3.13;;;24.80;99.90;;;;;;5136946;27;20201;-81
2024/01/27 11:38:13;;;;;;;14.45;3.05;;;24.80;99.90;;;;;;5132671;27;20288;-80
2024/01/27 11:40:50;;;;;;;11.85;2.40;;;24.80;99.90;;;;;;5129018;27;20194;-81
2024/01/27 11:43:21;;;;;;;11.20;3.00;;;24.80;99.90;;;;;;5115829;27;20217;-80
2024/01/27 11:45:59;;;;;;;14.60;2.30;;;24.80;99.90;;;;;;5138145;27;20210;-81
2024/01/27 11:48:32;;;;;;;11.55;2.50;;;24.80;99.90;;;;;;5119045;27;20205;-81
2024/01/27 11:51:11;;;;;;;9.00;2.42;;;24.80;99.90;;;;;;5115974;27;20235;-81
2024/01/27 11:53:42;;;;;;;10.23;2.70;;;24.70;99.90;;;;;;5114484;28;20222;-80
2024/01/27 11:56:13;;;;;;;7.82;2.20;;;24.70;99.90;;;;;;5118690;27;20198;-80
2024/01/27 11:58:50;;;;;;;12.95;2.65;;;24.70;99.90;;;;;;5129568;27;20208;-81
2024/01/27 12:01:21;;;;;;;9.30;2.50;;;24.70;99.90;;;;;;5114118;28;20680;-81
2024/01/27 12:03:57;;;;;;;10.88;2.72;;;24.70;99.90;;;;;;5113986;28;20290;-80
2024/01/27 12:06:28;;;;;;;14.57;2.92;;;24.70;99.90;;;;;;5113612;28;20228;-79
2024/01/27 12:09:00;;;;;;;12.05;2.55;;;24.70;99.90;;;;;;5113749;28;20286;-81
2024/01/27 12:11:33;;;;;;;14.63;2.58;;;24.70;99.90;;;;;;5111899;28;20205;-81
2024/01/27 12:14:03;;;;;;;11.82;2.72;;;24.70;99.90;;;;;;5112486;28;20225;-79
2024/01/27 12:16:35;;;;;;;13.77;2.97;;;24.70;99.90;;;;;;5122770;27;20258;-81
2024/01/27 12:19:07;;;;;;;11.43;2.58;;;24.70;99.90;;;;;;5153953;27;20185;-77
2024/01/27 12:21:38;;;;;;;11.90;2.58;;;24.70;99.90;;;;;;5133820;27;20231;-81
2024/01/27 12:24:17;;;;;;;9.48;2.63;;;24.70;99.90;;;;;;5112650;28;20195;-81
2024/01/27 12:26:49;;;;;;;11.95;2.58;;;24.70;99.90;;;;;;5123410;27;20199;-80
2024/01/27 12:29:22;;;;;;;11.60;2.75;;;24.60;99.90;;;;;;5119040;27;20649;-79
2024/01/27 12:31:55;;;;;;;13.40;2.97;;;24.60;99.90;;;;;;5112801;28;20206;-79
2024/01/27 12:34:27;;;;;;;10.93;2.60;;;24.60;99.90;;;;;;5113341;28;20236;-80
2024/01/27 12:36:59;;;;;;;15.43;2.92;;;24.50;99.90;;;;;;5122592;28;20249;-80
2024/01/27 12:39:30;;;;;;;7.60;2.25;;;24.50;99.90;;;;;;5116492;28;20282;-82
2024/01/27 12:42:01;;;;;;;15.82;3.20;;;24.50;99.90;;;;;;5114251;28;20194;-78
2024/01/27 12:44:32;;;;;;;11.73;2.70;;;24.40;99.90;;;;;;5129884;27;20205;-80
2024/01/27 12:47:03;;;;;;;11.32;2.75;;;24.50;99.90;;;;;;5128792;27;20196;-80
2024/01/27 12:49:36;;;;;;;9.18;2.42;;;24.40;99.90;;;;;;5122656;27;20225;-79
2024/01/27 12:52:07;;;;;;;10.68;2.60;;;24.40;99.90;;;;;;5094795;28;20239;-81
2024/01/27 12:54:38;;;;;;;12.80;2.85;;;24.30;99.90;;;;;;5091622;28;20219;-81
2024/01/27 12:57:10;;;;;;;12.57;2.83;;;24.30;99.90;;;;;;5092429;28;20653;-80
2024/01/27 12:59:41;;;;;;;13.25;3.08;;;24.30;99.90;;;;;;5094713;28;20206;-79
2024/01/27 13:02:11;;;;;;;9.18;2.55;;;24.20;99.90;;;;;;5106168;28;20197;-81
2024/01/27 13:04:44;;;;;;;13.60;3.08;;;24.20;99.90;;;;;;5113803;28;20246;-81